Romney, WV (26757)

6:58 AM EST on February 07, 2016 (GMT -0500)
Longview Farms | | Change Station
CLOSE
Current Station
Personal Weather Station
Location: Augusta, WV
Elevation: 1332 ft
Nearby Weather Stations

Elev 1332 ft 39.38 °N, 78.54 °W | Updated 8 seconds ago

Clear
Clear
28.8 °F
Feels Like 29 °F
N
2.5
Wind Variable Wind from West
Gusts 2.5 mph

Today
High -- | Low -- °F
--% Chance of Precip.
Yesterday
High -- | Low -- °F
Precip. -- in
Pressure 30.23 in
Visibility 10.0 miles
Clouds Clear
Windchill 29 °F
Dew Point 13 °F
Humidity 52%
Rainfall 0.00 in
Snow Depth Not available.
7:16 AM 5:42 PM
Waning Crescent, 2% visible
METAR KCBE 071147Z AUTO 03003KT 10SM CLR M04/M05 A3023 RMK AO1
Pressure 30.23 in
Visibility 10.0 miles
Clouds Clear
Windchill 29 °F
Dew Point 13 °F
Humidity 52%
Rainfall 0.00 in
Snow Depth Not available.
7:16 AM 5:42 PM
Waning Crescent, 2% visible
METAR KCBE 071147Z AUTO 03003KT 10SM CLR M04/M05 A3023 RMK AO1

10-Day Weather Forecast

Almanac

Astronomy

Feb. 07, 2016 Rise Set
Actual Time
Civil Twilight
Nautical Twilight
Astronomical Twilight
Moon
Length of Visible Light
Length of Day
Tomorrow will be .
, % of the Moon is Illuminated

Today's Extremes

State Highs State Lows

Community

WunderPhotos

Upload Photos

1,891,182 photos uploaded!

WunderBlog® & News

Nearby

Air Quality

  Air Quality AQ Index Pollutant
Not available.

Snow Depth

Station Depth Elevation

Earthquake Activity

City Distance Mag. Time & Date
Minimum magnitude displayed is 2.5.

Coastal Water Temperatures

Place Temperature

Stations

Nearby Weather Stations

Station Location Temp. Windchill Dew Point Humidity Wind Precip. Elev Updated Type
                   

Watches & Warnings

There are currently no watches in effect.